PWSweather.com
Personal Weather Stations
Station Observations
UPSTATEWEATHER
Silver Leaf, Greer, SC 29650

Silver LeafGreer, SC 29650

Lat: 34.8955792, Lon: -82.2868211

Elevation: 875

Station Type: Davis Vantage Vue

https://www.upstateweather.com

High Low Average
Temperature 92.0°F33.3°C 67.2°F19.6°C 78.9°F26.1°C
Dew Point 72.0°F22.2°C 60.0°F15.6°C 65.9°F18.8°C
Winds 1.2 mph 1.9 kmh Calm Calm Calm NCalm N
Wind Gusts 2.3 mph3.7 kmh -- --
Humidity 87% 41% 66%
Pressure 29.95 in1014.2 mb 29.84 in1010.5 mb -
Precipitation 0.00 in0.0 mm - -
Hour Temp Dew Point Humidity Winds Wind Gusts Pressure Precip Precip Rate Daily Precip Total
12:00 AM 73.8°F23.2°C 61.8°F16.6°C 66% Calm Calm 1.2 mph1.9 kmh 29.87 in1011.5 mb - 0.00 in0.0 mm 0.00 in0.0 mm
12:15 AM 73.8°F23.2°C 61.7°F16.5°C 66% Calm Calm -- 29.87 in1011.5 mb - 0.00 in0.0 mm 0.00 in0.0 mm
12:30 AM 73.8°F23.2°C 62.6°F17.0°C 68% Calm Calm -- 29.88 in1011.9 mb - 0.00 in0.0 mm 0.00 in0.0 mm
12:45 AM 73.5°F23.1°C 63.1°F17.3°C 70% Calm Calm -- 29.88 in1011.9 mb - 0.00 in0.0 mm 0.00 in0.0 mm
01:00 AM 73.3°F22.9°C 62.5°F16.9°C 69% Calm Calm -- 29.88 in1011.9 mb - 0.00 in0.0 mm 0.00 in0.0 mm
01:15 AM 73.3°F22.9°C 62.9°F17.2°C 70% Calm Calm -- 29.88 in1011.9 mb - 0.00 in0.0 mm 0.00 in0.0 mm
01:30 AM 72.7°F22.6°C 62.3°F16.8°C 70% Calm Calm -- 29.88 in1011.9 mb - 0.00 in0.0 mm 0.00 in0.0 mm
01:45 AM 72.5°F22.5°C 62.5°F16.9°C 71% Calm Calm -- 29.88 in1011.9 mb - 0.00 in0.0 mm 0.00 in0.0 mm
02:00 AM 72.0°F22.2°C 62.9°F17.2°C 73% Calm Calm -- 29.88 in1011.9 mb - 0.00 in0.0 mm 0.00 in0.0 mm
02:15 AM 71.8°F22.1°C 62.3°F16.8°C 72% Calm Calm -- 29.88 in1011.9 mb - 0.00 in0.0 mm 0.00 in0.0 mm
02:30 AM 71.6°F22.0°C 62.5°F16.9°C 73% Calm Calm -- 29.88 in1011.9 mb - 0.00 in0.0 mm 0.00 in0.0 mm
02:45 AM 71.4°F21.9°C 62.3°F16.8°C 73% Calm Calm -- 29.88 in1011.9 mb - 0.00 in0.0 mm 0.00 in0.0 mm
03:00 AM 71.1°F21.7°C 62.4°F16.9°C 74% Calm Calm -- 29.88 in1011.9 mb - 0.00 in0.0 mm 0.00 in0.0 mm
03:15 AM 71.0°F21.7°C 61.9°F16.6°C 73% Calm Calm -- 29.88 in1011.9 mb - 0.00 in0.0 mm 0.00 in0.0 mm
03:30 AM 71.0°F21.7°C 62.6°F17.0°C 75% Calm Calm -- 29.88 in1011.9 mb - 0.00 in0.0 mm 0.00 in0.0 mm
03:45 AM 70.7°F21.5°C 62.8°F17.1°C 76% Calm Calm -- 29.87 in1011.5 mb - 0.00 in0.0 mm 0.00 in0.0 mm
04:00 AM 70.2°F21.2°C 63.0°F17.2°C 78% Calm Calm -- 29.87 in1011.5 mb - 0.00 in0.0 mm 0.00 in0.0 mm
04:15 AM 69.9°F21.1°C 62.7°F17.1°C 78% Calm Calm -- 29.88 in1011.9 mb - 0.00 in0.0 mm 0.00 in0.0 mm
04:30 AM 69.7°F20.9°C 62.5°F16.9°C 78% Calm Calm -- 29.88 in1011.9 mb - 0.00 in0.0 mm 0.00 in0.0 mm
04:45 AM 69.2°F20.7°C 62.8°F17.1°C 80% Calm Calm -- 29.88 in1011.9 mb - 0.00 in0.0 mm 0.00 in0.0 mm
05:00 AM 68.7°F20.4°C 62.6°F17.0°C 81% Calm Calm -- 29.89 in1012.2 mb - 0.00 in0.0 mm 0.00 in0.0 mm
05:15 AM 68.4°F20.2°C 62.7°F17.1°C 82% Calm Calm -- 29.89 in1012.2 mb - 0.00 in0.0 mm 0.00 in0.0 mm
05:30 AM 68.4°F20.2°C 63.4°F17.4°C 84% Calm Calm -- 29.89 in1012.2 mb - 0.00 in0.0 mm 0.00 in0.0 mm
05:45 AM 68.2°F20.1°C 63.2°F17.3°C 84% Calm Calm -- 29.89 in1012.2 mb - 0.00 in0.0 mm 0.00 in0.0 mm
06:00 AM 68.1°F20.1°C 63.4°F17.4°C 85% Calm Calm -- 29.89 in1012.2 mb - 0.00 in0.0 mm 0.00 in0.0 mm
06:15 AM 67.7°F19.8°C 63.0°F17.2°C 85% Calm Calm -- 29.89 in1012.2 mb - 0.00 in0.0 mm 0.00 in0.0 mm
06:30 AM 67.2°F19.6°C 62.9°F17.2°C 86% Calm Calm -- 29.89 in1012.2 mb - 0.00 in0.0 mm 0.00 in0.0 mm
06:45 AM 67.2°F19.6°C 63.2°F17.3°C 87% Calm Calm -- 29.90 in1012.5 mb - 0.00 in0.0 mm 0.00 in0.0 mm
07:00 AM 67.5°F19.7°C 63.5°F17.5°C 87% Calm Calm -- 29.91 in1012.9 mb - 0.00 in0.0 mm 0.00 in0.0 mm
07:15 AM 67.8°F19.9°C 63.8°F17.7°C 87% Calm Calm -- 29.91 in1012.9 mb - 0.00 in0.0 mm 0.00 in0.0 mm
07:30 AM 68.4°F20.2°C 64.4°F18.0°C 87% Calm Calm -- 29.91 in1012.9 mb - 0.00 in0.0 mm 0.00 in0.0 mm
07:45 AM 69.4°F20.8°C 65.0°F18.3°C 86% Calm Calm -- 29.91 in1012.9 mb - 0.00 in0.0 mm 0.00 in0.0 mm
08:00 AM 70.7°F21.5°C 65.6°F18.7°C 84% Calm Calm -- 29.92 in1013.2 mb - 0.00 in0.0 mm 0.00 in0.0 mm
08:15 AM 72.1°F22.3°C 66.3°F19.1°C 82% Calm Calm -- 29.92 in1013.2 mb - 0.00 in0.0 mm 0.00 in0.0 mm
08:30 AM 73.7°F23.2°C 67.5°F19.7°C 81% Calm Calm -- 29.92 in1013.2 mb - 0.00 in0.0 mm 0.00 in0.0 mm
08:45 AM 75.2°F24.0°C 68.2°F20.1°C 79% Calm Calm -- 29.92 in1013.2 mb - 0.00 in0.0 mm 0.00 in0.0 mm
09:00 AM 77.0°F25.0°C 69.6°F20.9°C 78% Calm Calm -- 29.92 in1013.2 mb - 0.00 in0.0 mm 0.00 in0.0 mm
09:15 AM 78.9°F26.1°C 71.1°F21.7°C 77% Calm Calm -- 29.92 in1013.2 mb - 0.00 in0.0 mm 0.00 in0.0 mm
09:30 AM 80.8°F27.1°C 71.8°F22.1°C 74% Calm Calm -- 29.92 in1013.2 mb - 0.00 in0.0 mm 0.00 in0.0 mm
09:45 AM 82.8°F28.2°C 72.0°F22.2°C 70% Calm Calm -- 29.91 in1012.9 mb - 0.00 in0.0 mm 0.00 in0.0 mm
10:00 AM 83.7°F28.7°C 72.0°F22.2°C 68% Calm Calm -- 29.91 in1012.9 mb - 0.00 in0.0 mm 0.00 in0.0 mm
10:15 AM 84.8°F29.3°C 71.7°F22.1°C 65% Calm Calm -- 29.91 in1012.9 mb - 0.00 in0.0 mm 0.00 in0.0 mm
10:30 AM 85.5°F29.7°C 72.0°F22.2°C 64% 1.2 mph N1.9 kmh N 1.2 mph1.9 kmh 29.91 in1012.9 mb - 0.00 in0.0 mm 0.00 in0.0 mm
10:45 AM 86.3°F30.2°C 71.7°F22.1°C 62% Calm Calm 1.2 mph1.9 kmh 29.91 in1012.9 mb - 0.00 in0.0 mm 0.00 in0.0 mm
11:00 AM 86.7°F30.4°C 71.6°F22.0°C 61% Calm Calm -- 29.91 in1012.9 mb - 0.00 in0.0 mm 0.00 in0.0 mm
11:15 AM 86.6°F30.3°C 68.5°F20.3°C 55% Calm Calm -- 29.90 in1012.5 mb - 0.00 in0.0 mm 0.00 in0.0 mm
11:30 AM 87.3°F30.7°C 69.7°F20.9°C 56% Calm Calm -- 29.90 in1012.5 mb - 0.00 in0.0 mm 0.00 in0.0 mm
11:45 AM 88.1°F31.2°C 72.0°F22.2°C 59% 1.2 mph N1.9 kmh N 1.2 mph1.9 kmh 29.89 in1012.2 mb - 0.00 in0.0 mm 0.00 in0.0 mm
12:00 PM 88.6°F31.4°C 69.8°F21.0°C 54% Calm Calm 2.3 mph3.7 kmh 29.89 in1012.2 mb - 0.00 in0.0 mm 0.00 in0.0 mm
12:15 PM 88.2°F31.2°C 70.5°F21.4°C 56% Calm Calm -- 29.89 in1012.2 mb - 0.00 in0.0 mm 0.00 in0.0 mm
12:30 PM 89.1°F31.7°C 70.8°F21.6°C 55% Calm Calm 1.2 mph1.9 kmh 29.88 in1011.9 mb - 0.00 in0.0 mm 0.00 in0.0 mm
12:45 PM 88.5°F31.4°C 71.3°F21.8°C 57% Calm Calm -- 29.88 in1011.9 mb - 0.00 in0.0 mm 0.00 in0.0 mm
01:00 PM 87.4°F30.8°C 71.3°F21.8°C 59% Calm Calm -- 29.88 in1011.9 mb - 0.00 in0.0 mm 0.00 in0.0 mm
01:15 PM 87.2°F30.7°C 70.6°F21.4°C 58% Calm Calm -- 29.87 in1011.5 mb - 0.00 in0.0 mm 0.00 in0.0 mm
01:30 PM 88.8°F31.6°C 71.6°F22.0°C 57% Calm Calm 1.2 mph1.9 kmh 29.87 in1011.5 mb - 0.00 in0.0 mm 0.00 in0.0 mm
01:45 PM 89.4°F31.9°C 67.7°F19.8°C 49% Calm Calm -- 29.86 in1011.2 mb - 0.00 in0.0 mm 0.00 in0.0 mm
02:00 PM 90.2°F32.3°C 67.8°F19.9°C 48% Calm Calm -- 29.86 in1011.2 mb - 0.00 in0.0 mm 0.00 in0.0 mm
02:15 PM 90.7°F32.6°C 65.8°F18.8°C 44% Calm Calm -- 29.85 in1010.8 mb - 0.00 in0.0 mm 0.00 in0.0 mm
02:30 PM 91.7°F33.2°C 65.3°F18.5°C 42% Calm Calm -- 29.85 in1010.8 mb - 0.00 in0.0 mm 0.00 in0.0 mm
02:45 PM 91.3°F32.9°C 64.3°F17.9°C 41% 1.2 mph N1.9 kmh N 2.3 mph3.7 kmh 29.85 in1010.8 mb - 0.00 in0.0 mm 0.00 in0.0 mm
03:00 PM 91.8°F33.2°C 66.1°F18.9°C 43% 1.2 mph N1.9 kmh N 2.3 mph3.7 kmh 29.85 in1010.8 mb - 0.00 in0.0 mm 0.00 in0.0 mm
03:15 PM 91.7°F33.2°C 66.0°F18.9°C 43% Calm Calm -- 29.84 in1010.5 mb - 0.00 in0.0 mm 0.00 in0.0 mm
03:30 PM 91.8°F33.2°C 65.4°F18.6°C 42% Calm Calm 1.2 mph1.9 kmh 29.84 in1010.5 mb - 0.00 in0.0 mm 0.00 in0.0 mm
03:45 PM 92.0°F33.3°C 64.9°F18.3°C 41% Calm Calm 1.2 mph1.9 kmh 29.84 in1010.5 mb - 0.00 in0.0 mm 0.00 in0.0 mm
04:00 PM 90.9°F32.7°C 67.9°F19.9°C 47% Calm Calm -- 29.84 in1010.5 mb - 0.00 in0.0 mm 0.00 in0.0 mm
04:15 PM 89.6°F32.0°C 66.1°F18.9°C 46% Calm Calm -- 29.84 in1010.5 mb - 0.00 in0.0 mm 0.00 in0.0 mm
04:30 PM 88.9°F31.6°C 66.6°F19.2°C 48% Calm Calm -- 29.84 in1010.5 mb - 0.00 in0.0 mm 0.00 in0.0 mm
04:45 PM 88.5°F31.4°C 62.5°F16.9°C 42% Calm Calm -- 29.84 in1010.5 mb - 0.00 in0.0 mm 0.00 in0.0 mm
05:00 PM 88.1°F31.2°C 65.3°F18.5°C 47% Calm Calm -- 29.84 in1010.5 mb - 0.00 in0.0 mm 0.00 in0.0 mm
05:15 PM 87.3°F30.7°C 65.2°F18.4°C 48% Calm Calm -- 29.85 in1010.8 mb - 0.00 in0.0 mm 0.00 in0.0 mm
05:30 PM 86.8°F30.4°C 60.3°F15.7°C 41% Calm Calm -- 29.85 in1010.8 mb - 0.00 in0.0 mm 0.00 in0.0 mm
05:45 PM 86.5°F30.3°C 60.0°F15.6°C 41% Calm Calm -- 29.85 in1010.8 mb - 0.00 in0.0 mm 0.00 in0.0 mm
06:00 PM 86.0°F30.0°C 61.5°F16.4°C 44% Calm Calm -- 29.85 in1010.8 mb - 0.00 in0.0 mm 0.00 in0.0 mm
06:15 PM 85.3°F29.6°C 65.7°F18.7°C 52% Calm Calm -- 29.86 in1011.2 mb - 0.00 in0.0 mm 0.00 in0.0 mm
06:30 PM 83.0°F28.3°C 64.1°F17.8°C 53% Calm Calm -- 29.86 in1011.2 mb - 0.00 in0.0 mm 0.00 in0.0 mm
06:45 PM 83.2°F28.4°C 66.4°F19.1°C 57% Calm Calm -- 29.87 in1011.5 mb - 0.00 in0.0 mm 0.00 in0.0 mm
07:00 PM 82.6°F28.1°C 66.8°F19.3°C 59% Calm Calm -- 29.87 in1011.5 mb - 0.00 in0.0 mm 0.00 in0.0 mm
07:15 PM 81.7°F27.6°C 66.9°F19.4°C 61% Calm Calm -- 29.88 in1011.9 mb - 0.00 in0.0 mm 0.00 in0.0 mm
07:30 PM 80.9°F27.2°C 68.0°F20.0°C 65% Calm Calm -- 29.88 in1011.9 mb - 0.00 in0.0 mm 0.00 in0.0 mm
07:45 PM 80.2°F26.8°C 66.9°F19.4°C 64% Calm Calm -- 29.88 in1011.9 mb - 0.00 in0.0 mm 0.00 in0.0 mm
08:00 PM 79.6°F26.4°C 67.2°F19.6°C 66% Calm Calm -- 29.89 in1012.2 mb - 0.00 in0.0 mm 0.00 in0.0 mm
08:15 PM 79.0°F26.1°C 67.5°F19.7°C 68% Calm Calm -- 29.89 in1012.2 mb - 0.00 in0.0 mm 0.00 in0.0 mm
08:30 PM 78.3°F25.7°C 67.3°F19.6°C 69% Calm Calm -- 29.90 in1012.5 mb - 0.00 in0.0 mm 0.00 in0.0 mm
08:45 PM 77.9°F25.5°C 66.9°F19.4°C 69% Calm Calm -- 29.91 in1012.9 mb - 0.00 in0.0 mm 0.00 in0.0 mm
09:00 PM 77.6°F25.3°C 66.6°F19.2°C 69% Calm Calm -- 29.91 in1012.9 mb - 0.00 in0.0 mm 0.00 in0.0 mm
09:15 PM 77.0°F25.0°C 66.9°F19.4°C 71% Calm Calm -- 29.92 in1013.2 mb - 0.00 in0.0 mm 0.00 in0.0 mm
09:30 PM 76.5°F24.7°C 66.0°F18.9°C 70% Calm Calm -- 29.92 in1013.2 mb - 0.00 in0.0 mm 0.00 in0.0 mm
09:45 PM 75.7°F24.3°C 66.4°F19.1°C 73% Calm Calm -- 29.92 in1013.2 mb - 0.00 in0.0 mm 0.00 in0.0 mm
10:00 PM 74.9°F23.8°C 66.1°F18.9°C 74% Calm Calm -- 29.93 in1013.5 mb - 0.00 in0.0 mm 0.00 in0.0 mm
10:15 PM 74.7°F23.7°C 66.6°F19.2°C 76% Calm Calm -- 29.93 in1013.5 mb - 0.00 in0.0 mm 0.00 in0.0 mm
10:30 PM 74.3°F23.5°C 65.5°F18.6°C 74% Calm Calm -- 29.93 in1013.5 mb - 0.00 in0.0 mm 0.00 in0.0 mm
10:45 PM 73.6°F23.1°C 66.3°F19.1°C 78% Calm Calm -- 29.93 in1013.5 mb - 0.00 in0.0 mm 0.00 in0.0 mm
11:00 PM 72.9°F22.7°C 65.6°F18.7°C 78% Calm Calm -- 29.93 in1013.5 mb - 0.00 in0.0 mm 0.00 in0.0 mm
11:15 PM 72.6°F22.6°C 65.3°F18.5°C 78% 1.2 mph N1.9 kmh N 1.2 mph1.9 kmh 29.94 in1013.9 mb - 0.00 in0.0 mm 0.00 in0.0 mm
11:30 PM 72.0°F22.2°C 64.8°F18.2°C 78% Calm Calm -- 29.95 in1014.2 mb - 0.00 in0.0 mm 0.00 in0.0 mm
11:45 PM 71.9°F22.2°C 64.7°F18.2°C 78% Calm Calm -- 29.95 in1014.2 mb - 0.00 in0.0 mm 0.00 in0.0 mm